Time;durP1;ratioP1;P1;durP2;ratioP2;P2;SDS_P1;SDS_P2;PMS_P1;PMS_P2;Temp;Humidity;BMP_temperature;BMP_pressure;BME280_temperature;BME280_humidity;BME280_pressure;Samples;Min_cycle;Max_cycle;Signal;HPM_P1;HPM_P2
2022/03/20 00:00:50;;;;;;;;;;;21.10;39.50;;;;;;5074379;28;19978;-40
2022/03/20 00:03:17;;;;;;;;;;;21.10;39.50;;;;;;5074890;28;20008;-40
2022/03/20 00:05:46;;;;;;;;;;;21.10;39.50;;;;;;5074757;28;20121;-41
2022/03/20 00:08:13;;;;;;;;;;;21.10;39.50;;;;;;5074916;28;19925;-40
2022/03/20 00:10:42;;;;;;;;;;;21.10;39.50;;;;;;5075094;28;19982;-40
2022/03/20 00:13:10;;;;;;;;;;;21.10;39.50;;;;;;5075013;28;19985;-41
2022/03/20 00:15:40;;;;;;;;;;;21.10;39.50;;;;;;5075535;28;19924;-39
2022/03/20 00:18:08;;;;;;;;;;;21.10;39.50;;;;;;5055640;28;19924;-39
2022/03/20 00:20:35;;;;;;;;;;;21.10;39.50;;;;;;5071517;28;19925;-42
2022/03/20 00:23:10;;;;;;;;;;;21.10;39.50;;;;;;5074983;28;19932;-40
2022/03/20 00:25:38;;;;;;;;;;;21.10;39.50;;;;;;5074920;28;19925;-41
2022/03/20 00:28:05;;;;;;;;;;;21.10;39.50;;;;;;5074568;28;19924;-40
2022/03/20 00:30:33;;;;;;;;;;;21.10;39.50;;;;;;5074503;28;19970;-40
2022/03/20 00:33:00;;;;;;;;;;;21.10;39.50;;;;;;5073870;28;19924;-40
2022/03/20 00:35:28;;;;;;;;;;;21.10;39.50;;;;;;5073808;28;19964;-40
2022/03/20 00:37:56;;;;;;;;;;;21.10;39.50;;;;;;5074355;28;19924;-40
2022/03/20 00:40:23;;;;;;;;;;;21.10;39.50;;;;;;5074607;28;19968;-47
2022/03/20 00:42:50;;;;;;;;;;;21.10;39.50;;;;;;5074478;28;19924;-46
2022/03/20 00:45:17;;;;;;;;;;;21.10;39.50;;;;;;5074499;28;19924;-46
2022/03/20 00:47:44;;;;;;;;;;;21.10;39.50;;;;;;5061066;28;19978;-47
2022/03/20 00:50:11;;;;;;;;;;;21.10;39.50;;;;;;5047405;28;19990;-44
2022/03/20 00:52:38;;;;;;;;;;;21.10;39.50;;;;;;5073946;28;19931;-47
2022/03/20 00:55:05;;;;;;;;;;;21.10;39.50;;;;;;5074017;28;19928;-44
2022/03/20 00:57:32;;;;;;;;;;;21.10;39.50;;;;;;5074880;28;20365;-47
2022/03/20 00:59:59;;;;;;;;;;;21.10;39.50;;;;;;5074357;28;19963;-45
2022/03/20 01:02:25;;;;;;;;;;;21.10;39.50;;;;;;5073662;28;19928;-41
2022/03/20 01:04:53;;;;;;;;;;;21.10;39.50;;;;;;5073434;28;19932;-46
2022/03/20 01:07:20;;;;;;;;;;;21.10;39.50;;;;;;5074229;28;20338;-43
2022/03/20 01:09:47;;;;;;;;;;;21.10;39.50;;;;;;5074204;28;20340;-43
2022/03/20 01:12:14;;;;;;;;;;;21.10;39.50;;;;;;5073875;28;19964;-47
2022/03/20 01:14:41;;;;;;;;;;;21.10;39.50;;;;;;5073605;28;19929;-46
2022/03/20 01:17:08;;;;;;;;;;;21.10;39.50;;;;;;5072913;28;19947;-48
2022/03/20 01:19:36;;;;;;;;;;;21.10;39.50;;;;;;5072899;28;19974;-46
2022/03/20 01:22:03;;;;;;;;;;;21.10;39.50;;;;;;5072943;28;19925;-42
2022/03/20 01:24:30;;;;;;;;;;;21.10;39.50;;;;;;5073757;28;20395;-46
2022/03/20 01:26:57;;;;;;;;;;;21.10;39.50;;;;;;5073689;28;19925;-40
2022/03/20 01:29:24;;;;;;;;;;;21.10;39.50;;;;;;5073985;28;19929;-44
2022/03/20 01:31:51;;;;;;;;;;;21.10;39.60;;;;;;5055406;28;19925;-43
2022/03/20 01:34:18;;;;;;;;;;;21.10;39.50;;;;;;5073227;28;19931;-42
2022/03/20 01:36:45;;;;;;;;;;;21.10;39.60;;;;;;5073437;28;20338;-44
2022/03/20 01:39:12;;;;;;;;;;;21.10;39.50;;;;;;5073561;28;19977;-46
2022/03/20 01:41:39;;;;;;;;;;;21.10;39.50;;;;;;5073826;28;19924;-39
2022/03/20 01:44:06;;;;;;;;;;;21.10;39.50;;;;;;5056036;28;20326;-43
2022/03/20 01:46:33;;;;;;;;;;;21.10;39.50;;;;;;5073478;28;19990;-45
2022/03/20 01:49:00;;;;;;;;;;;21.10;39.50;;;;;;5072600;28;20372;-45
2022/03/20 01:54:13;;;;;;;;;;;21.10;39.50;;;;;;5073498;28;20433;-46
2022/03/20 01:56:45;;;;;;;;;;;21.10;39.50;;;;;;5073656;28;19978;-40
2022/03/20 01:59:16;;;;;;;;;;;21.10;39.50;;;;;;5073717;28;20273;-43
2022/03/20 02:01:44;;;;;;;;;;;21.10;39.60;;;;;;5055662;28;19974;-45
2022/03/20 02:04:12;;;;;;;;;;;21.00;39.50;;;;;;5055471;28;20008;-41
2022/03/20 02:06:40;;;;;;;;;;;21.10;39.60;;;;;;5070102;28;20388;-41
2022/03/20 02:09:08;;;;;;;;;;;21.10;39.50;;;;;;5073264;28;19972;-41
2022/03/20 02:11:35;;;;;;;;;;;21.10;39.50;;;;;;5055838;28;20341;-39
2022/03/20 02:14:02;;;;;;;;;;;21.10;39.50;;;;;;5073113;28;20007;-40
2022/03/20 02:16:29;;;;;;;;;;;21.10;39.50;;;;;;5074322;28;20330;-40
2022/03/20 02:18:56;;;;;;;;;;;21.00;39.50;;;;;;5058891;28;19929;-41
2022/03/20 02:21:39;;;;;;;;;;;21.10;39.50;;;;;;5065991;28;19978;-39
2022/03/20 02:24:24;;;;;;;;;;;21.10;39.50;;;;;;5073503;28;19937;-39
2022/03/20 02:27:00;;;;;;;;;;;21.10;39.50;;;;;;5073459;28;19925;-40
2022/03/20 02:29:27;;;;;;;;;;;21.00;39.40;;;;;;5073465;28;19929;-40
2022/03/20 02:31:54;;;;;;;;;;;21.10;39.50;;;;;;5073093;28;19931;-40
2022/03/20 02:34:21;;;;;;;;;;;21.10;39.50;;;;;;5074536;28;20366;-40
2022/03/20 02:36:48;;;;;;;;;;;21.10;39.50;;;;;;5076111;28;19968;-40
2022/03/20 02:39:15;;;;;;;;;;;21.10;39.50;;;;;;5076966;28;19970;-40
2022/03/20 02:41:44;;;;;;;;;;;21.10;39.50;;;;;;5076914;28;20007;-40
2022/03/20 02:44:11;;;;;;;;;;;21.00;39.50;;;;;;5076815;28;20358;-40
2022/03/20 02:46:38;;;;;;;;;;;21.00;39.50;;;;;;5076554;28;19978;-40
2022/03/20 02:49:06;;;;;;;;;;;21.00;39.50;;;;;;5046074;28;19939;-42
2022/03/20 02:51:35;;;;;;;;;;;21.00;39.50;;;;;;5068372;28;19925;-39
2022/03/20 02:54:03;;;;;;;;;;;21.00;39.50;;;;;;5076735;28;20345;-39
2022/03/20 02:56:32;;;;;;;;;;;21.00;39.50;;;;;;5076296;28;19924;-42
2022/03/20 02:58:59;;;;;;;;;;;21.00;39.50;;;;;;5077472;28;19978;-40
2022/03/20 03:01:26;;;;;;;;;;;21.00;39.50;;;;;;5076570;28;19928;-40
2022/03/20 03:03:54;;;;;;;;;;;21.00;39.50;;;;;;5075819;28;19924;-42
2022/03/20 03:06:21;;;;;;;;;;;21.00;39.50;;;;;;5075644;28;19968;-41
2022/03/20 03:11:34;;;;;;;;;;;21.00;39.50;;;;;;5076153;28;20384;-43
2022/03/20 03:15:18;;;;;;;;;;;21.00;39.40;;;;;;5075941;28;19928;-40
2022/03/20 03:16:47;;;;;;;;;;;21.00;39.50;;;;;;5075842;28;20019;-41
2022/03/20 03:19:15;;;;;;;;;;;21.00;39.50;;;;;;5075590;28;19947;-40
2022/03/20 03:21:42;;;;;;;;;;;21.00;39.50;;;;;;5074777;28;19925;-42
2022/03/20 03:24:09;;;;;;;;;;;21.00;39.50;;;;;;5076178;28;19925;-42
2022/03/20 03:26:36;;;;;;;;;;;21.00;39.50;;;;;;5075814;28;19979;-42
2022/03/20 03:29:03;;;;;;;;;;;21.00;39.50;;;;;;5076049;28;19928;-41
2022/03/20 03:31:30;;;;;;;;;;;21.00;39.50;;;;;;5075716;28;19970;-44
2022/03/20 03:36:43;;;;;;;;;;;21.00;39.50;;;;;;5066075;28;19975;-41
2022/03/20 03:39:11;;;;;;;;;;;21.00;39.50;;;;;;5055586;28;19925;-40
2022/03/20 03:41:38;;;;;;;;;;;21.00;39.50;;;;;;5055517;28;19925;-44
2022/03/20 03:44:06;;;;;;;;;;;21.00;39.50;;;;;;5055211;28;19925;-40
2022/03/20 03:46:33;;;;;;;;;;;21.00;39.50;;;;;;5055746;28;19929;-40
2022/03/20 03:49:00;;;;;;;;;;;21.00;39.50;;;;;;5061099;28;19924;-40
2022/03/20 03:51:27;;;;;;;;;;;21.00;39.50;;;;;;5069154;28;19925;-41
2022/03/20 03:53:54;;;;;;;;;;;21.00;39.50;;;;;;5055288;28;19925;-39
2022/03/20 03:56:21;;;;;;;;;;;21.00;39.50;;;;;;5055472;28;19948;-42
2022/03/20 03:58:48;;;;;;;;;;;21.00;39.50;;;;;;5055167;28;19925;-45
2022/03/20 04:01:14;;;;;;;;;;;21.00;39.50;;;;;;5055138;28;19979;-43
2022/03/20 04:03:41;;;;;;;;;;;21.00;39.50;;;;;;5056576;28;20403;-41
2022/03/20 04:06:09;;;;;;;;;;;21.00;39.50;;;;;;5074521;28;19932;-40
2022/03/20 04:08:36;;;;;;;;;;;21.00;39.50;;;;;;5075246;28;19930;-48
2022/03/20 04:11:03;;;;;;;;;;;21.00;39.50;;;;;;5074896;28;19947;-48
2022/03/20 04:13:30;;;;;;;;;;;21.00;39.50;;;;;;5075039;28;19960;-45
2022/03/20 04:15:57;;;;;;;;;;;21.00;39.50;;;;;;5074727;28;19924;-49
2022/03/20 04:18:24;;;;;;;;;;;21.00;39.50;;;;;;5075086;28;19925;-47
2022/03/20 04:20:52;;;;;;;;;;;21.00;39.50;;;;;;5073601;28;19925;-41
2022/03/20 04:26:05;;;;;;;;;;;21.00;39.50;;;;;;5074959;28;19924;-47
2022/03/20 04:28:32;;;;;;;;;;;21.00;39.50;;;;;;5074903;28;19925;-42
2022/03/20 04:30:59;;;;;;;;;;;21.00;39.50;;;;;;5074537;28;19967;-46
2022/03/20 04:33:27;;;;;;;;;;;21.00;39.50;;;;;;5074749;28;19928;-44
2022/03/20 04:35:54;;;;;;;;;;;21.00;39.50;;;;;;5074008;28;19983;-42
2022/03/20 04:38:21;;;;;;;;;;;21.00;39.50;;;;;;5073639;28;19931;-45
2022/03/20 04:40:49;;;;;;;;;;;20.90;39.40;;;;;;5074378;28;19967;-46
2022/03/20 04:43:17;;;;;;;;;;;20.90;39.40;;;;;;5074486;28;19970;-40
2022/03/20 04:45:44;;;;;;;;;;;20.90;39.40;;;;;;5074579;28;19925;-44
2022/03/20 04:59:13;;;;;;;;;;;20.90;39.40;;;;;;5074810;28;19950;-43
2022/03/20 05:01:39;;;;;;;;;;;20.90;39.40;;;;;;5074004;28;19931;-46
2022/03/20 05:04:07;;;;;;;;;;;20.90;39.40;;;;;;5073498;28;20031;-40
2022/03/20 05:06:34;;;;;;;;;;;20.90;39.40;;;;;;5072766;28;19968;-40
2022/03/20 05:14:31;;;;;;;;;;;20.90;39.40;;;;;;5073786;28;19925;-43
2022/03/20 05:17:08;;;;;;;;;;;20.90;39.40;;;;;;5073750;28;20445;-46
2022/03/20 05:19:36;;;;;;;;;;;20.90;39.40;;;;;;5073079;28;19929;-40
2022/03/20 05:22:04;;;;;;;;;;;20.90;39.40;;;;;;5072628;28;19928;-40
2022/03/20 05:24:31;;;;;;;;;;;20.90;39.40;;;;;;5074051;28;19928;-47
2022/03/20 05:26:58;;;;;;;;;;;20.90;39.30;;;;;;5073718;28;19974;-41
2022/03/20 05:29:25;;;;;;;;;;;20.90;39.30;;;;;;5074013;28;20342;-44
2022/03/20 05:31:53;;;;;;;;;;;20.90;39.40;;;;;;5055924;28;19924;-41
2022/03/20 05:34:20;;;;;;;;;;;20.90;39.40;;;;;;5073932;28;19971;-42
2022/03/20 05:36:47;;;;;;;;;;;20.90;39.30;;;;;;5054312;28;20273;-40
2022/03/20 05:39:14;;;;;;;;;;;20.90;39.30;;;;;;5073616;28;19975;-41
2022/03/20 05:41:48;;;;;;;;;;;20.90;39.30;;;;;;5073519;28;20023;-41
2022/03/20 05:44:19;;;;;;;;;;;20.90;39.30;;;;;;5073783;28;19970;-40
2022/03/20 05:46:48;;;;;;;;;;;20.90;39.30;;;;;;5073541;28;19925;-45
2022/03/20 05:49:15;;;;;;;;;;;21.00;39.30;;;;;;5073502;28;19928;-40
2022/03/20 05:51:43;;;;;;;;;;;20.90;39.30;;;;;;5072543;28;19938;-43
2022/03/20 05:54:10;;;;;;;;;;;21.00;39.30;;;;;;5072950;28;19925;-40
2022/03/20 05:59:22;;;;;;;;;;;21.00;39.30;;;;;;5073767;28;20277;-39
2022/03/20 06:01:51;;;;;;;;;;;21.00;39.30;;;;;;5073354;28;19970;-41
2022/03/20 06:04:18;;;;;;;;;;;21.00;39.30;;;;;;5073657;28;20367;-40
2022/03/20 06:06:45;;;;;;;;;;;21.00;39.30;;;;;;5072684;28;19928;-41
2022/03/20 06:09:12;;;;;;;;;;;21.00;39.30;;;;;;5076333;28;19924;-39
2022/03/20 06:11:39;;;;;;;;;;;21.00;39.30;;;;;;5077196;28;20304;-40
2022/03/20 06:14:07;;;;;;;;;;;21.00;39.20;;;;;;5077078;28;19968;-40
2022/03/20 06:16:35;;;;;;;;;;;21.00;39.20;;;;;;5077399;28;19963;-43
2022/03/20 06:19:03;;;;;;;;;;;21.00;39.20;;;;;;5077201;28;19924;-45
2022/03/20 06:21:30;;;;;;;;;;;21.00;39.20;;;;;;5058373;28;19979;-43
2022/03/20 06:23:57;;;;;;;;;;;21.00;39.10;;;;;;5076142;28;20429;-46
2022/03/20 06:26:24;;;;;;;;;;;21.00;39.10;;;;;;5076943;28;19946;-42
2022/03/20 06:28:51;;;;;;;;;;;21.00;39.10;;;;;;5077211;28;19924;-42
2022/03/20 06:31:19;;;;;;;;;;;21.00;39.10;;;;;;5077144;28;20260;-43
2022/03/20 06:34:04;;;;;;;;;;;21.00;39.10;;;;;;5077172;28;19925;-40
2022/03/20 06:36:31;;;;;;;;;;;21.00;39.10;;;;;;5075934;28;20395;-39
2022/03/20 06:38:58;;;;;;;;;;;21.10;39.10;;;;;;5075747;28;19959;-41
2022/03/20 06:41:25;;;;;;;;;;;21.10;39.10;;;;;;5076647;28;20376;-39
2022/03/20 06:43:52;;;;;;;;;;;21.10;39.10;;;;;;5076789;28;19967;-39
2022/03/20 06:46:20;;;;;;;;;;;21.10;39.10;;;;;;5076558;28;19971;-41
2022/03/20 06:48:52;;;;;;;;;;;21.10;39.10;;;;;;5076556;28;19924;-39
2022/03/20 06:51:22;;;;;;;;;;;21.10;39.10;;;;;;5075890;28;19925;-39
2022/03/20 06:53:50;;;;;;;;;;;21.10;39.10;;;;;;5075920;28;20012;-42
2022/03/20 06:56:17;;;;;;;;;;;21.10;39.10;;;;;;5076618;28;19925;-40
2022/03/20 06:58:44;;;;;;;;;;;21.10;39.00;;;;;;5076714;28;19970;-39
2022/03/20 07:01:11;;;;;;;;;;;21.10;39.00;;;;;;5076303;28;19970;-41
2022/03/20 07:03:39;;;;;;;;;;;21.10;39.00;;;;;;5076536;28;19935;-41
2022/03/20 07:06:06;;;;;;;;;;;21.10;39.00;;;;;;5071014;28;19972;-41
2022/03/20 07:08:32;;;;;;;;;;;21.10;39.00;;;;;;5062348;28;19929;-39
2022/03/20 07:10:59;;;;;;;;;;;21.10;39.00;;;;;;5076071;28;19925;-40
2022/03/20 07:16:15;;;;;;;;;;;21.10;38.90;;;;;;5076346;28;20340;-48
2022/03/20 07:18:44;;;;;;;;;;;21.10;38.90;;;;;;5075968;28;19925;-48
2022/03/20 07:21:12;;;;;;;;;;;21.10;38.90;;;;;;5056588;28;20012;-47
2022/03/20 07:23:39;;;;;;;;;;;21.10;38.90;;;;;;5075411;28;19924;-50
2022/03/20 07:31:37;;;;;;;;;;;21.20;38.90;;;;;;5075824;28;20396;-43
2022/03/20 07:34:04;;;;;;;;;;;21.10;38.80;;;;;;5075695;28;19925;-43
2022/03/20 07:36:31;;;;;;;;;;;21.20;38.90;;;;;;5075140;28;19986;-48
2022/03/20 07:38:59;;;;;;;;;;;21.20;38.90;;;;;;5075116;28;19925;-47
2022/03/20 07:41:26;;;;;;;;;;;21.20;38.90;;;;;;5075554;28;20014;-49
2022/03/20 07:43:53;;;;;;;;;;;21.20;38.80;;;;;;5075423;28;19925;-43
2022/03/20 07:46:20;;;;;;;;;;;21.20;38.80;;;;;;5075751;28;19929;-45
2022/03/20 07:48:50;;;;;;;;;;;21.20;38.80;;;;;;5075741;28;19974;-41
2022/03/20 07:51:17;;;;;;;;;;;21.20;39.40;;;;;;5074427;28;19925;-40
2022/03/20 07:53:45;;;;;;;;;;;21.20;38.80;;;;;;5075283;28;19925;-41
2022/03/20 07:56:12;;;;;;;;;;;21.20;38.80;;;;;;5075153;28;19968;-43
2022/03/20 07:58:39;;;;;;;;;;;21.20;38.80;;;;;;5076025;28;19970;-41
2022/03/20 08:01:06;;;;;;;;;;;21.20;39.40;;;;;;5075458;28;19974;-41
2022/03/20 08:03:33;;;;;;;;;;;21.20;38.80;;;;;;5075076;28;20007;-41
2022/03/20 08:06:00;;;;;;;;;;;21.20;38.70;;;;;;5075322;28;19986;-42
2022/03/20 08:08:27;;;;;;;;;;;21.20;38.70;;;;;;5073860;28;20330;-39
2022/03/20 08:10:53;;;;;;;;;;;21.20;38.70;;;;;;5075189;28;19924;-40
2022/03/20 08:13:20;;;;;;;;;;;21.20;38.60;;;;;;5075100;28;19960;-40
2022/03/20 08:15:47;;;;;;;;;;;21.20;38.60;;;;;;5074890;28;19987;-40
2022/03/20 08:18:15;;;;;;;;;;;21.20;38.60;;;;;;5074779;28;20383;-39
2022/03/20 08:20:42;;;;;;;;;;;21.20;38.60;;;;;;5074650;28;19925;-39
2022/03/20 08:23:10;;;;;;;;;;;21.20;38.50;;;;;;5073948;28;19925;-40
2022/03/20 08:25:38;;;;;;;;;;;21.20;38.50;;;;;;5073811;28;19970;-42
2022/03/20 08:28:07;;;;;;;;;;;21.20;38.40;;;;;;5074949;28;19925;-39
2022/03/20 08:30:34;;;;;;;;;;;21.20;38.40;;;;;;5074896;28;19968;-39
2022/03/20 08:33:01;;;;;;;;;;;21.20;38.40;;;;;;5074634;28;20003;-41
2022/03/20 08:35:28;;;;;;;;;;;21.20;38.30;;;;;;5074458;28;20446;-40
2022/03/20 08:37:55;;;;;;;;;;;21.30;38.40;;;;;;5074071;28;20033;-42
2022/03/20 08:40:24;;;;;;;;;;;21.30;38.30;;;;;;5073887;28;19963;-41
2022/03/20 08:42:54;;;;;;;;;;;21.30;38.30;;;;;;5074199;28;19973;-40
2022/03/20 08:45:22;;;;;;;;;;;21.30;38.20;;;;;;5074304;28;19992;-40
2022/03/20 08:47:49;;;;;;;;;;;21.30;38.20;;;;;;5074565;28;19970;-39
2022/03/20 08:50:17;;;;;;;;;;;21.30;38.10;;;;;;5074200;28;19968;-40
2022/03/20 08:52:45;;;;;;;;;;;21.30;38.10;;;;;;5073323;28;19924;-41
2022/03/20 08:55:13;;;;;;;;;;;21.30;38.10;;;;;;5062373;28;19955;-40
2022/03/20 08:57:40;;;;;;;;;;;21.30;38.00;;;;;;5054071;28;20024;-43
2022/03/20 09:00:11;;;;;;;;;;;21.30;38.00;;;;;;5054380;28;19964;-40
2022/03/20 09:02:38;;;;;;;;;;;21.30;38.00;;;;;;5054358;28;19979;-40
2022/03/20 09:05:06;;;;;;;;;;;21.30;37.90;;;;;;5053976;28;19968;-43
2022/03/20 09:07:33;;;;;;;;;;;21.30;37.90;;;;;;5058449;28;19946;-42
2022/03/20 09:10:00;;;;;;;;;;;21.30;37.90;;;;;;5073090;28;19925;-40
2022/03/20 09:12:27;;;;;;;;;;;21.30;37.80;;;;;;5073727;28;19924;-45
2022/03/20 09:14:54;;;;;;;;;;;21.30;37.80;;;;;;5074174;28;19925;-40
2022/03/20 09:20:06;;;;;;;;;;;21.30;37.70;;;;;;5073672;28;19924;-40
2022/03/20 09:22:34;;;;;;;;;;;21.40;37.80;;;;;;5072871;28;20443;-42
2022/03/20 09:25:01;;;;;;;;;;;21.40;37.80;;;;;;5073258;28;19924;-39
2022/03/20 09:27:28;;;;;;;;;;;21.40;37.80;;;;;;5074012;28;19929;-40
2022/03/20 09:29:55;;;;;;;;;;;21.40;37.70;;;;;;5073691;28;19925;-40
2022/03/20 09:32:22;;;;;;;;;;;21.40;37.70;;;;;;5073665;28;20388;-40
2022/03/20 09:34:49;;;;;;;;;;;21.40;37.70;;;;;;5073619;28;20015;-41
2022/03/20 09:37:16;;;;;;;;;;;21.40;37.70;;;;;;5073907;28;20428;-40
2022/03/20 09:39:43;;;;;;;;;;;21.40;37.70;;;;;;5073019;28;20346;-40
2022/03/20 09:42:10;;;;;;;;;;;21.40;37.70;;;;;;5074825;28;19928;-40
2022/03/20 09:44:41;;;;;;;;;;;21.40;37.70;;;;;;5080529;28;19986;-41
2022/03/20 09:47:17;;;;;;;;;;;21.40;37.70;;;;;;5080509;28;19974;-39
2022/03/20 09:49:47;;;;;;;;;;;21.40;37.70;;;;;;5080504;28;19928;-40
2022/03/20 09:52:16;;;;;;;;;;;21.40;37.70;;;;;;5080266;28;20287;-40
2022/03/20 09:54:43;;;;;;;;;;;21.40;37.60;;;;;;5078489;28;19971;-42
2022/03/20 09:57:10;;;;;;;;;;;21.40;37.60;;;;;;5080384;28;20334;-40
2022/03/20 09:59:38;;;;;;;;;;;21.40;37.60;;;;;;5080105;28;19924;-41
2022/03/20 10:02:09;;;;;;;;;;;21.50;37.70;;;;;;5080065;28;19924;-40
2022/03/20 10:04:53;;;;;;;;;;;21.50;37.70;;;;;;5080038;28;19924;-44
2022/03/20 10:07:21;;;;;;;;;;;21.50;37.70;;;;;;5080280;28;19924;-39
2022/03/20 10:10:07;;;;;;;;;;;21.50;37.60;;;;;;5078800;28;19997;-39
2022/03/20 10:12:35;;;;;;;;;;;21.50;37.60;;;;;;5080217;28;19925;-39
2022/03/20 10:15:05;;;;;;;;;;;21.50;37.60;;;;;;5080264;28;19924;-41
2022/03/20 10:17:39;;;;;;;;;;;21.50;37.60;;;;;;5080418;28;20001;-40
2022/03/20 10:20:13;;;;;;;;;;;21.50;37.50;;;;;;5080579;28;19929;-40
2022/03/20 10:22:40;;;;;;;;;;;21.50;37.50;;;;;;5080075;28;19963;-42
2022/03/20 10:25:09;;;;;;;;;;;21.50;37.60;;;;;;5078575;28;19932;-40
2022/03/20 10:27:36;;;;;;;;;;;21.50;37.50;;;;;;5079792;28;20019;-40
2022/03/20 10:30:08;;;;;;;;;;;21.50;37.50;;;;;;5079172;28;20213;-40
2022/03/20 10:32:35;;;;;;;;;;;21.50;37.50;;;;;;5080086;28;19979;-42
2022/03/20 10:35:05;;;;;;;;;;;21.50;37.50;;;;;;5079798;28;19928;-41
2022/03/20 10:37:52;;;;;;;;;;;21.50;37.50;;;;;;5079978;28;20383;-47
2022/03/20 10:40:21;;;;;;;;;;;21.50;37.50;;;;;;5078480;28;19939;-45
2022/03/20 10:43:09;;;;;;;;;;;21.50;37.50;;;;;;5080317;28;20434;-48
2022/03/20 10:46:12;;;;;;;;;;;21.50;37.40;;;;;;5079693;28;19931;-48
2022/03/20 10:48:42;;;;;;;;;;;21.60;37.50;;;;;;5017683;28;19926;-49
2022/03/20 10:51:09;;;;;;;;;;;21.60;37.50;;;;;;5017932;28;19933;-44
2022/03/20 10:53:51;;;;;;;;;;;21.60;37.50;;;;;;5015898;28;19946;-46
2022/03/20 10:56:18;;;;;;;;;;;21.60;37.50;;;;;;5013612;28;19976;-48
2022/03/20 10:58:45;;;;;;;;;;;21.60;37.40;;;;;;4998601;28;19926;-44
2022/03/20 11:01:13;;;;;;;;;;;21.60;37.50;;;;;;5014657;28;19961;-42
2022/03/20 11:03:40;;;;;;;;;;;21.60;37.40;;;;;;5014799;28;19926;-47
2022/03/20 11:06:08;;;;;;;;;;;21.60;37.40;;;;;;5014511;28;19926;-43
2022/03/20 11:08:38;;;;;;;;;;;21.60;37.40;;;;;;5013709;28;19980;-44
2022/03/20 11:11:06;;;;;;;;;;;21.60;37.40;;;;;;5013677;28;19973;-43
2022/03/20 11:13:34;;;;;;;;;;;21.60;37.40;;;;;;5014293;28;19988;-40
2022/03/20 11:16:04;;;;;;;;;;;21.60;37.40;;;;;;5014429;28;20448;-45
2022/03/20 11:18:33;;;;;;;;;;;21.60;37.30;;;;;;5014256;28;19925;-45
2022/03/20 11:21:01;;;;;;;;;;;21.60;37.30;;;;;;5013937;28;19926;-40
2022/03/20 11:23:29;;;;;;;;;;;21.60;37.30;;;;;;5049345;28;20381;-40
2022/03/20 11:25:56;;;;;;;;;;;21.60;37.30;;;;;;5074759;28;19962;-43
2022/03/20 11:28:24;;;;;;;;;;;21.60;37.30;;;;;;5076700;28;19970;-41
2022/03/20 11:30:57;;;;;;;;;;;21.60;37.30;;;;;;5076124;28;19924;-43
2022/03/20 11:33:25;;;;;;;;;;;21.60;37.20;;;;;;5075979;28;20368;-41
2022/03/20 11:35:52;;;;;;;;;;;21.70;37.30;;;;;;5076188;28;19925;-40
2022/03/20 11:38:19;;;;;;;;;;;21.70;37.30;;;;;;5075825;28;19925;-41
2022/03/20 11:41:05;;;;;;;;;;;21.70;37.30;;;;;;5074277;28;19924;-41
2022/03/20 11:43:33;;;;;;;;;;;21.70;37.20;;;;;;5075380;28;19924;-44
2022/03/20 11:46:12;;;;;;;;;;;21.70;37.20;;;;;;5075414;28;20018;-47
2022/03/20 11:48:39;;;;;;;;;;;21.70;37.10;;;;;;5075440;28;19924;-44
2022/03/20 11:51:06;;;;;;;;;;;21.70;37.10;;;;;;5075456;28;20361;-40
2022/03/20 11:53:37;;;;;;;;;;;21.70;37.10;;;;;;5075213;28;19924;-39
2022/03/20 11:56:27;;;;;;;;;;;21.70;37.00;;;;;;5073688;28;20019;-41
2022/03/20 11:58:54;;;;;;;;;;;21.70;37.00;;;;;;5075522;28;19964;-40
2022/03/20 12:01:21;;;;;;;;;;;21.80;37.10;;;;;;5075541;28;19971;-43
2022/03/20 12:03:55;;;;;;;;;;;21.80;37.00;;;;;;5075953;28;19924;-40
2022/03/20 12:06:30;;;;;;;;;;;21.80;37.00;;;;;;5074718;28;19970;-40
2022/03/20 12:09:01;;;;;;;;;;;21.80;37.00;;;;;;5075262;28;19924;-40
2022/03/20 12:11:37;;;;;;;;;;;21.80;37.00;;;;;;5074236;28;19924;-39
2022/03/20 12:14:22;;;;;;;;;;;21.80;36.90;;;;;;5074809;28;20352;-40
2022/03/20 12:16:50;;;;;;;;;;;21.80;36.90;;;;;;5074957;28;19976;-40
2022/03/20 12:19:18;;;;;;;;;;;21.80;36.90;;;;;;5074711;28;19925;-41
2022/03/20 12:22:02;;;;;;;;;;;21.80;36.90;;;;;;5074430;28;20342;-39
2022/03/20 12:24:31;;;;;;;;;;;21.80;36.90;;;;;;5074169;28;20023;-40
2022/03/20 12:27:18;;;;;;;;;;;21.80;36.80;;;;;;5074113;28;20011;-41
2022/03/20 12:29:46;;;;;;;;;;;21.80;36.90;;;;;;5075135;28;19931;-42
2022/03/20 12:32:20;;;;;;;;;;;21.80;36.80;;;;;;5074911;28;19978;-40
2022/03/20 12:34:56;;;;;;;;;;;21.80;36.70;;;;;;5074508;28;20438;-42
2022/03/20 12:37:38;;;;;;;;;;;21.80;36.70;;;;;;5074706;28;19928;-41
2022/03/20 12:40:14;;;;;;;;;;;21.90;36.70;;;;;;5073926;28;20350;-41
2022/03/20 12:43:08;;;;;;;;;;;21.80;36.60;;;;;;5073377;28;19924;-41
2022/03/20 12:45:37;;;;;;;;;;;21.90;36.60;;;;;;5074660;28;19947;-41
2022/03/20 12:48:24;;;;;;;;;;;21.90;36.50;;;;;;5074583;28;19963;-41
2022/03/20 12:50:57;;;;;;;;;;;21.90;36.50;;;;;;5074116;28;19932;-41
2022/03/20 12:53:24;;;;;;;;;;;21.90;36.40;;;;;;5074452;28;19932;-41
2022/03/20 12:55:55;;;;;;;;;;;21.90;36.40;;;;;;5073770;28;19924;-43
2022/03/20 12:58:23;;;;;;;;;;;21.90;36.20;;;;;;5073383;28;19966;-41
2022/03/20 13:00:52;;;;;;;;;;;21.90;36.20;;;;;;5074640;28;19950;-43
2022/03/20 13:03:20;;;;;;;;;;;21.90;36.20;;;;;;5074345;28;19928;-42
2022/03/20 13:05:50;;;;;;;;;;;22.00;36.20;;;;;;5074000;28;20430;-40
2022/03/20 13:08:21;;;;;;;;;;;22.00;36.20;;;;;;5073933;28;20015;-42
2022/03/20 13:10:49;;;;;;;;;;;22.00;36.20;;;;;;5073395;28;20346;-39
2022/03/20 13:13:20;;;;;;;;;;;22.00;36.20;;;;;;5072959;28;19931;-41
2022/03/20 13:15:48;;;;;;;;;;;22.00;36.10;;;;;;5074996;28;20011;-40
2022/03/20 13:18:15;;;;;;;;;;;22.00;36.10;;;;;;5073064;28;19925;-40
2022/03/20 13:20:43;;;;;;;;;;;22.00;36.00;;;;;;5073421;28;19925;-41
2022/03/20 13:23:12;;;;;;;;;;;22.00;36.00;;;;;;5073778;28;19925;-40
2022/03/20 13:25:43;;;;;;;;;;;22.00;36.00;;;;;;5066802;28;19978;-40
2022/03/20 13:28:29;;;;;;;;;;;22.10;36.10;;;;;;5064852;28;19925;-43
2022/03/20 13:30:57;;;;;;;;;;;22.10;36.00;;;;;;5073695;28;19974;-40
2022/03/20 13:33:34;;;;;;;;;;;22.10;36.00;;;;;;5073983;28;19993;-44
2022/03/20 13:36:03;;;;;;;;;;;22.00;36.00;;;;;;5074584;28;19978;-41
2022/03/20 13:38:34;;;;;;;;;;;22.00;36.00;;;;;;5074086;28;20303;-42
2022/03/20 13:41:14;;;;;;;;;;;22.00;36.00;;;;;;5073274;28;19970;-44
2022/03/20 13:43:41;;;;;;;;;;;22.00;36.00;;;;;;5072967;28;20353;-43
2022/03/20 13:46:12;;;;;;;;;;;22.00;36.10;;;;;;5073539;28;19924;-40
2022/03/20 13:48:40;;;;;;;;;;;22.00;36.20;;;;;;5073781;28;19929;-40
2022/03/20 13:51:07;;;;;;;;;;;22.00;36.20;;;;;;5073630;28;19968;-48
2022/03/20 13:53:35;;;;;;;;;;;22.00;36.20;;;;;;5073780;28;19925;-45
2022/03/20 13:56:02;;;;;;;;;;;21.90;36.20;;;;;;5072585;28;19967;-44
2022/03/20 13:58:30;;;;;;;;;;;21.90;36.20;;;;;;5072525;28;19928;-48
2022/03/20 14:01:01;;;;;;;;;;;21.90;36.30;;;;;;5073391;28;20393;-47
2022/03/20 14:03:31;;;;;;;;;;;21.90;36.30;;;;;;5073740;28;20015;-44
2022/03/20 14:05:58;;;;;;;;;;;21.90;36.50;;;;;;5073660;28;19974;-43
2022/03/20 14:08:26;;;;;;;;;;;21.80;36.40;;;;;;5073282;28;19924;-44
2022/03/20 14:10:58;;;;;;;;;;;21.80;36.40;;;;;;5072867;28;19939;-44
2022/03/20 14:13:27;;;;;;;;;;;21.80;36.40;;;;;;5062912;28;20411;-44
2022/03/20 14:15:57;;;;;;;;;;;21.80;36.50;;;;;;5053455;28;19929;-41
2022/03/20 14:18:25;;;;;;;;;;;21.80;36.50;;;;;;5053403;28;19983;-44
2022/03/20 14:21:08;;;;;;;;;;;21.80;36.50;;;;;;5035342;28;19979;-50
2022/03/20 14:23:49;;;;;;;;;;;21.80;36.50;;;;;;5053188;28;19925;-49
2022/03/20 14:26:18;;;;;;;;;;;21.80;36.60;;;;;;5054059;28;19972;-42
2022/03/20 14:28:45;;;;;;;;;;;21.80;36.60;;;;;;5064887;28;19975;-48
2022/03/20 14:39:43;;;;;;;;;;;21.70;36.60;;;;;;5077021;28;20295;-45
2022/03/20 14:42:24;;;;;;;;;;;21.70;36.70;;;;;;5058219;28;19967;-47
2022/03/20 14:44:51;;;;;;;;;;;21.70;36.70;;;;;;5076133;28;20007;-45
2022/03/20 14:47:19;;;;;;;;;;;21.70;36.70;;;;;;5076943;28;20003;-43
2022/03/20 14:49:47;;;;;;;;;;;21.70;36.70;;;;;;5076817;28;19924;-40
2022/03/20 14:52:15;;;;;;;;;;;21.70;36.70;;;;;;5076684;28;19994;-41
2022/03/20 14:54:42;;;;;;;;;;;21.70;36.70;;;;;;5076495;28;20008;-48
2022/03/20 14:57:09;;;;;;;;;;;21.70;36.80;;;;;;5075671;28;19946;-49
2022/03/20 14:59:36;;;;;;;;;;;21.70;36.70;;;;;;5075588;28;20018;-46
2022/03/20 15:02:03;;;;;;;;;;;21.70;36.70;;;;;;5076366;28;19955;-46
2022/03/20 15:04:33;;;;;;;;;;;21.70;36.80;;;;;;5076637;28;19925;-42
2022/03/20 15:07:01;;;;;;;;;;;21.70;36.80;;;;;;5076555;28;19978;-40
2022/03/20 15:12:13;;;;;;;;;;;21.70;36.80;;;;;;5075344;28;19978;-42
2022/03/20 15:14:41;;;;;;;;;;;21.70;36.80;;;;;;5075452;28;19928;-42
2022/03/20 15:17:08;;;;;;;;;;;21.70;36.80;;;;;;5076094;28;20372;-43
2022/03/20 15:19:36;;;;;;;;;;;21.70;36.80;;;;;;5075984;28;20372;-43